Weather at Hancock County-Bar Harbor Airport

Public forecast

Using degrees Fahrenheit for public forecast. Weather courtesy of forecast.io.

Current aviation weather report (METAR) for Hancock County-Bar Harbor Airport

Retrieved 2020/10/27 03:10 UTC (15 minutes ago):

KBHB 270310Z AUTO 19013KT 4SM BR OVC007 11/11 A3004 RMK AO2

Aviation forecast (TAF) for Hancock County-Bar Harbor Airport

Retrieved 2020-10-27 00:22 UTC (3 hours ago):

TAF KBHB 262320Z 2700/2724 14004KT 2SM -RADZ BR OVC006 FM270600 28004KT P6SM VCSH OVC013 FM270800 29005KT P6SM VCSH OVC026 FM271200 31006KT P6SM BKN035 FM271800 32007KT P6SM SCT045